sensor_id;sensor_type;location;lat;lon;timestamp;temperature;humidity
31525;DHT22;18134;52.298;8.888;2023-03-04T00:02:06;4.60;99.90
31525;DHT22;18134;52.298;8.888;2023-03-04T00:04:34;4.60;99.90
31525;DHT22;18134;52.298;8.888;2023-03-04T00:06:59;4.60;99.90
31525;DHT22;18134;52.298;8.888;2023-03-04T00:09:25;4.60;99.90
31525;DHT22;18134;52.298;8.888;2023-03-04T00:11:50;4.60;99.90
31525;DHT22;18134;52.298;8.888;2023-03-04T00:14:18;4.50;99.90
31525;DHT22;18134;52.298;8.888;2023-03-04T00:16:46;4.50;99.90
31525;DHT22;18134;52.298;8.888;2023-03-04T00:19:16;4.60;99.90
31525;DHT22;18134;52.298;8.888;2023-03-04T00:21:43;4.60;99.90
31525;DHT22;18134;52.298;8.888;2023-03-04T00:24:09;4.60;99.90
31525;DHT22;18134;52.298;8.888;2023-03-04T00:26:34;4.60;99.90
31525;DHT22;18134;52.298;8.888;2023-03-04T00:29:00;4.50;99.90
31525;DHT22;18134;52.298;8.888;2023-03-04T00:31:25;4.60;99.90
31525;DHT22;18134;52.298;8.888;2023-03-04T00:33:56;4.60;99.90
31525;DHT22;18134;52.298;8.888;2023-03-04T00:36:21;4.60;99.90
31525;DHT22;18134;52.298;8.888;2023-03-04T00:38:49;4.60;99.90
31525;DHT22;18134;52.298;8.888;2023-03-04T00:41:19;4.60;99.90
31525;DHT22;18134;52.298;8.888;2023-03-04T00:43:47;4.60;99.90
31525;DHT22;18134;52.298;8.888;2023-03-04T00:46:15;4.60;99.90
31525;DHT22;18134;52.298;8.888;2023-03-04T00:48:43;4.60;99.90
31525;DHT22;18134;52.298;8.888;2023-03-04T00:51:08;4.60;99.90
31525;DHT22;18134;52.298;8.888;2023-03-04T00:53:36;4.70;99.90
31525;DHT22;18134;52.298;8.888;2023-03-04T00:56:02;4.70;99.90
31525;DHT22;18134;52.298;8.888;2023-03-04T00:58:30;4.70;99.90
31525;DHT22;18134;52.298;8.888;2023-03-04T01:00:58;4.70;99.90
31525;DHT22;18134;52.298;8.888;2023-03-04T01:03:26;4.70;99.90
31525;DHT22;18134;52.298;8.888;2023-03-04T01:05:58;4.80;99.90
31525;DHT22;18134;52.298;8.888;2023-03-04T01:08:23;4.70;99.90
31525;DHT22;18134;52.298;8.888;2023-03-04T01:10:51;4.80;99.90
31525;DHT22;18134;52.298;8.888;2023-03-04T01:13:17;4.70;99.90
31525;DHT22;18134;52.298;8.888;2023-03-04T01:15:42;4.70;99.90
31525;DHT22;18134;52.298;8.888;2023-03-04T01:18:08;4.80;99.90
31525;DHT22;18134;52.298;8.888;2023-03-04T01:20:34;4.70;99.90
31525;DHT22;18134;52.298;8.888;2023-03-04T01:22:59;4.70;99.90
31525;DHT22;18134;52.298;8.888;2023-03-04T01:25:27;4.70;99.90
31525;DHT22;18134;52.298;8.888;2023-03-04T01:27:55;4.70;99.90
31525;DHT22;18134;52.298;8.888;2023-03-04T01:30:25;4.70;99.90
31525;DHT22;18134;52.298;8.888;2023-03-04T01:32:51;4.70;99.90
31525;DHT22;18134;52.298;8.888;2023-03-04T01:35:19;4.70;99.90
31525;DHT22;18134;52.298;8.888;2023-03-04T01:37:47;4.70;99.90
31525;DHT22;18134;52.298;8.888;2023-03-04T01:42:40;4.70;99.90
31525;DHT22;18134;52.298;8.888;2023-03-04T01:45:09;4.80;99.90
31525;DHT22;18134;52.298;8.888;2023-03-04T01:47:36;4.70;99.90
31525;DHT22;18134;52.298;8.888;2023-03-04T01:50:06;4.70;99.90
31525;DHT22;18134;52.298;8.888;2023-03-04T01:52:35;4.80;99.90
31525;DHT22;18134;52.298;8.888;2023-03-04T01:55:05;4.70;99.90
31525;DHT22;18134;52.298;8.888;2023-03-04T01:57:33;4.80;99.90
31525;DHT22;18134;52.298;8.888;2023-03-04T02:02:46;4.80;99.90
31525;DHT22;18134;52.298;8.888;2023-03-04T02:05:14;4.80;99.90
31525;DHT22;18134;52.298;8.888;2023-03-04T02:07:43;4.90;99.90
31525;DHT22;18134;52.298;8.888;2023-03-04T02:10:09;4.90;99.90
31525;DHT22;18134;52.298;8.888;2023-03-04T02:12:34;4.90;99.90
31525;DHT22;18134;52.298;8.888;2023-03-04T02:15:00;4.90;99.90
31525;DHT22;18134;52.298;8.888;2023-03-04T02:17:26;4.90;99.90
31525;DHT22;18134;52.298;8.888;2023-03-04T02:22:17;4.90;99.90
31525;DHT22;18134;52.298;8.888;2023-03-04T02:24:48;4.90;99.90
31525;DHT22;18134;52.298;8.888;2023-03-04T02:27:18;4.90;99.90
31525;DHT22;18134;52.298;8.888;2023-03-04T02:29:46;5.00;99.90
31525;DHT22;18134;52.298;8.888;2023-03-04T02:32:12;5.00;99.90
31525;DHT22;18134;52.298;8.888;2023-03-04T02:34:46;4.90;99.90
31525;DHT22;18134;52.298;8.888;2023-03-04T02:37:15;4.90;99.90
31525;DHT22;18134;52.298;8.888;2023-03-04T02:39:44;4.90;99.90
31525;DHT22;18134;52.298;8.888;2023-03-04T02:42:10;4.90;99.90
31525;DHT22;18134;52.298;8.888;2023-03-04T02:44:40;4.90;99.90
31525;DHT22;18134;52.298;8.888;2023-03-04T02:47:11;4.90;99.90
31525;DHT22;18134;52.298;8.888;2023-03-04T02:49:38;4.90;99.90
31525;DHT22;18134;52.298;8.888;2023-03-04T02:52:08;4.90;99.90
31525;DHT22;18134;52.298;8.888;2023-03-04T02:54:34;4.90;99.90
31525;DHT22;18134;52.298;8.888;2023-03-04T02:57:03;5.00;99.90
31525;DHT22;18134;52.298;8.888;2023-03-04T02:59:29;5.00;99.90
31525;DHT22;18134;52.298;8.888;2023-03-04T03:01:54;5.00;99.90
31525;DHT22;18134;52.298;8.888;2023-03-04T03:04:20;5.00;99.90
31525;DHT22;18134;52.298;8.888;2023-03-04T03:06:46;5.00;99.90
31525;DHT22;18134;52.298;8.888;2023-03-04T03:09:12;5.00;99.90
31525;DHT22;18134;52.298;8.888;2023-03-04T03:11:40;4.90;99.90
31525;DHT22;18134;52.298;8.888;2023-03-04T03:14:08;5.00;99.90
31525;DHT22;18134;52.298;8.888;2023-03-04T03:16:34;5.00;99.90
31525;DHT22;18134;52.298;8.888;2023-03-04T03:18:59;4.90;99.90
31525;DHT22;18134;52.298;8.888;2023-03-04T03:21:27;4.90;99.90
31525;DHT22;18134;52.298;8.888;2023-03-04T03:23:55;4.90;99.90
31525;DHT22;18134;52.298;8.888;2023-03-04T03:26:21;4.90;99.90
31525;DHT22;18134;52.298;8.888;2023-03-04T03:28:46;5.00;99.90
31525;DHT22;18134;52.298;8.888;2023-03-04T03:31:12;5.00;99.90
31525;DHT22;18134;52.298;8.888;2023-03-04T03:33:38;5.00;99.90
31525;DHT22;18134;52.298;8.888;2023-03-04T03:36:03;5.00;99.90
31525;DHT22;18134;52.298;8.888;2023-03-04T03:38:29;5.00;99.90
31525;DHT22;18134;52.298;8.888;2023-03-04T03:40:54;5.00;99.90
31525;DHT22;18134;52.298;8.888;2023-03-04T03:43:22;5.00;99.90
31525;DHT22;18134;52.298;8.888;2023-03-04T03:45:50;5.00;99.90
31525;DHT22;18134;52.298;8.888;2023-03-04T03:48:16;5.00;99.90
31525;DHT22;18134;52.298;8.888;2023-03-04T03:50:46;5.10;99.90
31525;DHT22;18134;52.298;8.888;2023-03-04T03:53:12;5.00;99.90
31525;DHT22;18134;52.298;8.888;2023-03-04T03:55:37;5.00;99.90
31525;DHT22;18134;52.298;8.888;2023-03-04T03:58:03;5.00;99.90
31525;DHT22;18134;52.298;8.888;2023-03-04T04:00:29;5.00;99.90
31525;DHT22;18134;52.298;8.888;2023-03-04T04:02:57;5.00;99.90
31525;DHT22;18134;52.298;8.888;2023-03-04T04:05:24;5.00;99.90
31525;DHT22;18134;52.298;8.888;2023-03-04T04:07:52;5.00;99.90
31525;DHT22;18134;52.298;8.888;2023-03-04T04:10:22;5.00;99.90
31525;DHT22;18134;52.298;8.888;2023-03-04T04:12:50;5.00;99.90
31525;DHT22;18134;52.298;8.888;2023-03-04T04:15:15;5.00;99.90
31525;DHT22;18134;52.298;8.888;2023-03-04T04:17:45;5.00;99.90
31525;DHT22;18134;52.298;8.888;2023-03-04T04:20:11;5.00;99.90
31525;DHT22;18134;52.298;8.888;2023-03-04T04:22:36;5.00;99.90
31525;DHT22;18134;52.298;8.888;2023-03-04T04:25:04;5.00;99.90
31525;DHT22;18134;52.298;8.888;2023-03-04T04:27:32;5.10;99.90
31525;DHT22;18134;52.298;8.888;2023-03-04T04:29:58;5.00;99.90
31525;DHT22;18134;52.298;8.888;2023-03-04T04:32:26;5.00;99.90
31525;DHT22;18134;52.298;8.888;2023-03-04T04:34:54;5.00;99.90
31525;DHT22;18134;52.298;8.888;2023-03-04T04:37:22;5.00;99.90
31525;DHT22;18134;52.298;8.888;2023-03-04T04:39:50;5.00;99.90
31525;DHT22;18134;52.298;8.888;2023-03-04T04:42:16;4.90;99.90
31525;DHT22;18134;52.298;8.888;2023-03-04T04:44:42;4.90;99.90
31525;DHT22;18134;52.298;8.888;2023-03-04T04:47:10;4.90;99.90
31525;DHT22;18134;52.298;8.888;2023-03-04T04:49:38;4.90;99.90
31525;DHT22;18134;52.298;8.888;2023-03-04T04:52:03;4.90;99.90
31525;DHT22;18134;52.298;8.888;2023-03-04T04:54:29;5.00;99.90
31525;DHT22;18134;52.298;8.888;2023-03-04T04:56:55;4.90;99.90
31525;DHT22;18134;52.298;8.888;2023-03-04T04:59:20;4.80;99.90
31525;DHT22;18134;52.298;8.888;2023-03-04T05:01:48;4.80;99.90
31525;DHT22;18134;52.298;8.888;2023-03-04T05:04:13;4.90;99.90
31525;DHT22;18134;52.298;8.888;2023-03-04T05:06:41;4.80;99.90
31525;DHT22;18134;52.298;8.888;2023-03-04T05:09:10;4.90;99.90
31525;DHT22;18134;52.298;8.888;2023-03-04T05:11:38;4.80;99.90
31525;DHT22;18134;52.298;8.888;2023-03-04T05:14:04;4.80;99.90
31525;DHT22;18134;52.298;8.888;2023-03-04T05:16:32;4.80;99.90
31525;DHT22;18134;52.298;8.888;2023-03-04T05:18:58;4.60;99.90
31525;DHT22;18134;52.298;8.888;2023-03-04T05:21:23;4.80;99.90
31525;DHT22;18134;52.298;8.888;2023-03-04T05:23:51;4.70;99.90
31525;DHT22;18134;52.298;8.888;2023-03-04T05:26:19;4.70;99.90
31525;DHT22;18134;52.298;8.888;2023-03-04T05:28:44;4.70;99.90
31525;DHT22;18134;52.298;8.888;2023-03-04T05:31:12;4.70;99.90
31525;DHT22;18134;52.298;8.888;2023-03-04T05:33:38;4.70;99.90
31525;DHT22;18134;52.298;8.888;2023-03-04T05:36:04;4.70;99.90
31525;DHT22;18134;52.298;8.888;2023-03-04T05:38:30;4.60;99.90
31525;DHT22;18134;52.298;8.888;2023-03-04T05:40:59;4.60;99.90
31525;DHT22;18134;52.298;8.888;2023-03-04T05:43:28;4.60;99.90
31525;DHT22;18134;52.298;8.888;2023-03-04T05:45:56;4.50;99.90
31525;DHT22;18134;52.298;8.888;2023-03-04T05:48:24;4.60;99.90
31525;DHT22;18134;52.298;8.888;2023-03-04T05:50:54;4.60;99.90
31525;DHT22;18134;52.298;8.888;2023-03-04T05:53:22;4.70;99.90
31525;DHT22;18134;52.298;8.888;2023-03-04T05:55:50;4.50;99.90
31525;DHT22;18134;52.298;8.888;2023-03-04T05:58:18;4.50;99.90
31525;DHT22;18134;52.298;8.888;2023-03-04T06:00:44;4.50;99.90
31525;DHT22;18134;52.298;8.888;2023-03-04T06:03:12;4.50;99.90
31525;DHT22;18134;52.298;8.888;2023-03-04T06:05:40;4.50;99.90
31525;DHT22;18134;52.298;8.888;2023-03-04T06:08:06;4.50;99.90
31525;DHT22;18134;52.298;8.888;2023-03-04T06:10:34;4.50;99.90
31525;DHT22;18134;52.298;8.888;2023-03-04T06:13:04;4.50;99.90
31525;DHT22;18134;52.298;8.888;2023-03-04T06:15:29;4.40;99.90
31525;DHT22;18134;52.298;8.888;2023-03-04T06:17:55;4.40;99.90
31525;DHT22;18134;52.298;8.888;2023-03-04T06:20:23;4.30;99.90
31525;DHT22;18134;52.298;8.888;2023-03-04T06:22:48;4.30;99.90
31525;DHT22;18134;52.298;8.888;2023-03-04T06:25:16;4.20;99.90
31525;DHT22;18134;52.298;8.888;2023-03-04T06:27:42;4.20;99.90
31525;DHT22;18134;52.298;8.888;2023-03-04T06:30:07;4.30;99.90
31525;DHT22;18134;52.298;8.888;2023-03-04T06:32:33;4.30;99.90
31525;DHT22;18134;52.298;8.888;2023-03-04T06:35:01;4.20;99.90
31525;DHT22;18134;52.298;8.888;2023-03-04T06:37:27;4.30;99.90
31525;DHT22;18134;52.298;8.888;2023-03-04T06:39:55;4.30;99.90
31525;DHT22;18134;52.298;8.888;2023-03-04T06:42:20;4.30;99.90
31525;DHT22;18134;52.298;8.888;2023-03-04T06:44:47;4.30;99.90
31525;DHT22;18134;52.298;8.888;2023-03-04T06:47:12;4.40;99.90
31525;DHT22;18134;52.298;8.888;2023-03-04T06:49:38;4.40;99.90
31525;DHT22;18134;52.298;8.888;2023-03-04T06:52:06;4.50;99.90
31525;DHT22;18134;52.298;8.888;2023-03-04T06:54:34;4.50;99.90
31525;DHT22;18134;52.298;8.888;2023-03-04T06:57:02;4.60;99.90
31525;DHT22;18134;52.298;8.888;2023-03-04T06:59:30;4.60;99.90
31525;DHT22;18134;52.298;8.888;2023-03-04T07:01:58;4.70;99.90
31525;DHT22;18134;52.298;8.888;2023-03-04T07:04:26;4.80;99.90
31525;DHT22;18134;52.298;8.888;2023-03-04T07:06:51;4.80;99.90
31525;DHT22;18134;52.298;8.888;2023-03-04T07:09:22;4.80;99.90
31525;DHT22;18134;52.298;8.888;2023-03-04T07:11:50;4.90;99.90
31525;DHT22;18134;52.298;8.888;2023-03-04T07:14:15;4.90;99.90
31525;DHT22;18134;52.298;8.888;2023-03-04T07:16:41;5.00;99.90
31525;DHT22;18134;52.298;8.888;2023-03-04T07:19:06;5.00;99.90
31525;DHT22;18134;52.298;8.888;2023-03-04T07:21:32;5.10;99.90
31525;DHT22;18134;52.298;8.888;2023-03-04T07:24:02;5.00;99.90
31525;DHT22;18134;52.298;8.888;2023-03-04T07:26:30;5.10;99.90
31525;DHT22;18134;52.298;8.888;2023-03-04T07:28:58;5.20;99.90
31525;DHT22;18134;52.298;8.888;2023-03-04T07:31:27;5.20;99.90
31525;DHT22;18134;52.298;8.888;2023-03-04T07:33:58;5.20;99.90
31525;DHT22;18134;52.298;8.888;2023-03-04T07:36:24;5.10;99.90
31525;DHT22;18134;52.298;8.888;2023-03-04T07:38:52;5.20;99.90
31525;DHT22;18134;52.298;8.888;2023-03-04T07:41:25;5.30;99.90
31525;DHT22;18134;52.298;8.888;2023-03-04T07:43:51;5.30;99.90
31525;DHT22;18134;52.298;8.888;2023-03-04T07:46:17;5.40;99.90
31525;DHT22;18134;52.298;8.888;2023-03-04T07:48:42;5.50;99.90
31525;DHT22;18134;52.298;8.888;2023-03-04T07:51:11;5.50;99.90
31525;DHT22;18134;52.298;8.888;2023-03-04T07:53:41;5.60;99.90
31525;DHT22;18134;52.298;8.888;2023-03-04T07:56:07;5.50;99.90
31525;DHT22;18134;52.298;8.888;2023-03-04T07:58:35;5.40;99.90
31525;DHT22;18134;52.298;8.888;2023-03-04T08:01:21;5.30;99.90
31525;DHT22;18134;52.298;8.888;2023-03-04T08:03:48;5.40;99.90
31525;DHT22;18134;52.298;8.888;2023-03-04T08:06:14;5.30;99.90
31525;DHT22;18134;52.298;8.888;2023-03-04T08:08:40;5.30;99.90
31525;DHT22;18134;52.298;8.888;2023-03-04T08:11:08;5.30;99.90
31525;DHT22;18134;52.298;8.888;2023-03-04T08:13:34;5.20;99.90
31525;DHT22;18134;52.298;8.888;2023-03-04T08:16:00;5.10;99.90
31525;DHT22;18134;52.298;8.888;2023-03-04T08:18:27;5.20;99.90
31525;DHT22;18134;52.298;8.888;2023-03-04T08:20:55;5.30;99.90
31525;DHT22;18134;52.298;8.888;2023-03-04T08:23:21;5.30;99.90
31525;DHT22;18134;52.298;8.888;2023-03-04T08:25:47;5.70;99.90
31525;DHT22;18134;52.298;8.888;2023-03-04T08:28:14;5.70;99.90
31525;DHT22;18134;52.298;8.888;2023-03-04T08:30:40;5.70;99.90
31525;DHT22;18134;52.298;8.888;2023-03-04T08:33:11;5.60;99.90
31525;DHT22;18134;52.298;8.888;2023-03-04T08:35:37;5.60;99.90
31525;DHT22;18134;52.298;8.888;2023-03-04T08:38:03;5.70;99.90
31525;DHT22;18134;52.298;8.888;2023-03-04T08:40:31;5.70;99.90
31525;DHT22;18134;52.298;8.888;2023-03-04T08:42:59;5.70;99.90
31525;DHT22;18134;52.298;8.888;2023-03-04T08:45:25;5.80;99.90
31525;DHT22;18134;52.298;8.888;2023-03-04T08:47:50;5.80;99.90
31525;DHT22;18134;52.298;8.888;2023-03-04T08:50:16;5.70;99.90
31525;DHT22;18134;52.298;8.888;2023-03-04T08:52:42;5.60;99.90
31525;DHT22;18134;52.298;8.888;2023-03-04T08:55:10;5.50;99.90
31525;DHT22;18134;52.298;8.888;2023-03-04T08:57:35;5.50;99.90
31525;DHT22;18134;52.298;8.888;2023-03-04T09:00:01;5.50;99.90
31525;DHT22;18134;52.298;8.888;2023-03-04T09:02:29;5.50;99.90
31525;DHT22;18134;52.298;8.888;2023-03-04T09:04:54;5.50;99.90
31525;DHT22;18134;52.298;8.888;2023-03-04T09:07:20;5.70;99.90
31525;DHT22;18134;52.298;8.888;2023-03-04T09:09:45;5.70;99.90
31525;DHT22;18134;52.298;8.888;2023-03-04T09:12:11;5.60;99.90
31525;DHT22;18134;52.298;8.888;2023-03-04T09:14:37;5.50;99.90
31525;DHT22;18134;52.298;8.888;2023-03-04T09:17:05;5.50;99.90
31525;DHT22;18134;52.298;8.888;2023-03-04T09:19:31;5.40;99.90
31525;DHT22;18134;52.298;8.888;2023-03-04T09:21:57;5.40;99.90
31525;DHT22;18134;52.298;8.888;2023-03-04T09:24:26;5.40;99.90
31525;DHT22;18134;52.298;8.888;2023-03-04T09:26:52;5.30;99.90
31525;DHT22;18134;52.298;8.888;2023-03-04T09:29:18;5.30;99.90
31525;DHT22;18134;52.298;8.888;2023-03-04T09:31:45;5.30;99.90
31525;DHT22;18134;52.298;8.888;2023-03-04T09:34:11;5.30;99.90
31525;DHT22;18134;52.298;8.888;2023-03-04T09:36:38;5.30;99.90
31525;DHT22;18134;52.298;8.888;2023-03-04T09:39:06;4.90;99.90
31525;DHT22;18134;52.298;8.888;2023-03-04T09:41:36;5.30;99.90
31525;DHT22;18134;52.298;8.888;2023-03-04T09:46:50;5.40;99.90
31525;DHT22;18134;52.298;8.888;2023-03-04T09:49:18;4.70;99.90
31525;DHT22;18134;52.298;8.888;2023-03-04T09:54:31;5.30;99.90
31525;DHT22;18134;52.298;8.888;2023-03-04T10:05:04;5.30;99.90
31525;DHT22;18134;52.298;8.888;2023-03-04T10:07:32;5.40;99.90
31525;DHT22;18134;52.298;8.888;2023-03-04T10:12:24;6.20;99.90
31525;DHT22;18134;52.298;8.888;2023-03-04T10:15:00;6.00;99.90
31525;DHT22;18134;52.298;8.888;2023-03-04T10:17:36;5.90;99.90
31525;DHT22;18134;52.298;8.888;2023-03-04T10:20:10;5.80;99.90
31525;DHT22;18134;52.298;8.888;2023-03-04T10:22:45;5.90;99.90
31525;DHT22;18134;52.298;8.888;2023-03-04T10:25:25;6.20;99.90
31525;DHT22;18134;52.298;8.888;2023-03-04T10:30:25;6.20;99.90
31525;DHT22;18134;52.298;8.888;2023-03-04T10:32:53;6.10;99.90
31525;DHT22;18134;52.298;8.888;2023-03-04T10:35:24;5.90;99.90
31525;DHT22;18134;52.298;8.888;2023-03-04T10:37:51;6.00;99.90
31525;DHT22;18134;52.298;8.888;2023-03-04T10:40:22;5.90;99.90
31525;DHT22;18134;52.298;8.888;2023-03-04T10:42:48;6.00;99.90
31525;DHT22;18134;52.298;8.888;2023-03-04T10:45:22;6.00;99.90
31525;DHT22;18134;52.298;8.888;2023-03-04T10:47:51;6.10;99.90
31525;DHT22;18134;52.298;8.888;2023-03-04T10:50:22;6.10;99.90
31525;DHT22;18134;52.298;8.888;2023-03-04T10:52:48;6.20;99.90
31525;DHT22;18134;52.298;8.888;2023-03-04T10:55:18;6.30;99.90
31525;DHT22;18134;52.298;8.888;2023-03-04T10:57:47;6.50;99.90
31525;DHT22;18134;52.298;8.888;2023-03-04T11:02:41;6.80;99.90
31525;DHT22;18134;52.298;8.888;2023-03-04T11:07:49;7.00;99.90
31525;DHT22;18134;52.298;8.888;2023-03-04T11:12:41;7.10;99.90
31525;DHT22;18134;52.298;8.888;2023-03-04T11:15:19;6.90;99.90
31525;DHT22;18134;52.298;8.888;2023-03-04T11:17:49;6.70;99.90
31525;DHT22;18134;52.298;8.888;2023-03-04T11:22:49;6.50;99.90
31525;DHT22;18134;52.298;8.888;2023-03-04T11:25:20;6.40;99.90
31525;DHT22;18134;52.298;8.888;2023-03-04T11:27:51;6.20;99.90
31525;DHT22;18134;52.298;8.888;2023-03-04T11:33:16;6.00;99.90
31525;DHT22;18134;52.298;8.888;2023-03-04T11:35:57;6.20;99.90
31525;DHT22;18134;52.298;8.888;2023-03-04T11:38:28;6.50;99.90
31525;DHT22;18134;52.298;8.888;2023-03-04T11:41:02;6.50;99.90
31525;DHT22;18134;52.298;8.888;2023-03-04T11:48:44;7.00;99.90
31525;DHT22;18134;52.298;8.888;2023-03-04T11:51:20;6.90;99.90
31525;DHT22;18134;52.298;8.888;2023-03-04T12:17:16;6.00;99.90
31525;DHT22;18134;52.298;8.888;2023-03-04T12:22:15;6.20;99.90
31525;DHT22;18134;52.298;8.888;2023-03-04T12:24:49;6.20;99.90
31525;DHT22;18134;52.298;8.888;2023-03-04T12:40:36;7.30;99.90
31525;DHT22;18134;52.298;8.888;2023-03-04T12:48:44;7.50;99.90
31525;DHT22;18134;52.298;8.888;2023-03-04T12:56:26;7.60;99.90
31525;DHT22;18134;52.298;8.888;2023-03-04T12:58:54;7.40;99.90
31525;DHT22;18134;52.298;8.888;2023-03-04T13:01:28;7.40;99.90
31525;DHT22;18134;52.298;8.888;2023-03-04T13:09:14;7.10;99.90
31525;DHT22;18134;52.298;8.888;2023-03-04T13:11:48;7.00;99.90
31525;DHT22;18134;52.298;8.888;2023-03-04T13:16:44;6.90;99.90
31525;DHT22;18134;52.298;8.888;2023-03-04T13:21:57;6.50;99.90
31525;DHT22;18134;52.298;8.888;2023-03-04T13:24:44;6.50;99.90
31525;DHT22;18134;52.298;8.888;2023-03-04T13:29:55;6.60;99.90
31525;DHT22;18134;52.298;8.888;2023-03-04T13:32:38;6.60;99.90
31525;DHT22;18134;52.298;8.888;2023-03-04T13:37:56;6.70;99.90
31525;DHT22;18134;52.298;8.888;2023-03-04T13:40:23;6.70;99.90
31525;DHT22;18134;52.298;8.888;2023-03-04T13:43:23;6.70;99.90
31525;DHT22;18134;52.298;8.888;2023-03-04T13:45:49;6.60;99.90
31525;DHT22;18134;52.298;8.888;2023-03-04T13:49:16;6.60;99.90
31525;DHT22;18134;52.298;8.888;2023-03-04T13:51:14;6.40;99.90
31525;DHT22;18134;52.298;8.888;2023-03-04T13:59:01;6.80;99.90
31525;DHT22;18134;52.298;8.888;2023-03-04T14:01:31;6.90;99.90
31525;DHT22;18134;52.298;8.888;2023-03-04T14:03:57;6.80;99.90
31525;DHT22;18134;52.298;8.888;2023-03-04T14:06:24;6.80;99.90
31525;DHT22;18134;52.298;8.888;2023-03-04T14:08:51;6.80;99.90
31525;DHT22;18134;52.298;8.888;2023-03-04T14:11:36;6.80;99.90
31525;DHT22;18134;52.298;8.888;2023-03-04T14:14:04;6.80;99.90
31525;DHT22;18134;52.298;8.888;2023-03-04T14:16:33;6.70;99.90
31525;DHT22;18134;52.298;8.888;2023-03-04T14:19:01;6.80;99.90
31525;DHT22;18134;52.298;8.888;2023-03-04T14:21:27;6.80;99.90
31525;DHT22;18134;52.298;8.888;2023-03-04T14:24:01;6.80;99.90
31525;DHT22;18134;52.298;8.888;2023-03-04T14:26:30;6.80;99.90
31525;DHT22;18134;52.298;8.888;2023-03-04T14:28:58;6.70;99.90
31525;DHT22;18134;52.298;8.888;2023-03-04T14:31:27;6.80;99.90
31525;DHT22;18134;52.298;8.888;2023-03-04T14:33:54;6.80;99.90
31525;DHT22;18134;52.298;8.888;2023-03-04T14:36:24;6.70;99.90
31525;DHT22;18134;52.298;8.888;2023-03-04T14:38:55;6.70;99.90
31525;DHT22;18134;52.298;8.888;2023-03-04T14:41:30;6.60;99.90
31525;DHT22;18134;52.298;8.888;2023-03-04T14:46:42;5.90;99.90
31525;DHT22;18134;52.298;8.888;2023-03-04T14:49:12;5.90;99.90
31525;DHT22;18134;52.298;8.888;2023-03-04T14:51:48;5.90;99.90
31525;DHT22;18134;52.298;8.888;2023-03-04T14:56:59;6.10;99.90
31525;DHT22;18134;52.298;8.888;2023-03-04T14:59:27;6.10;99.90
31525;DHT22;18134;52.298;8.888;2023-03-04T15:02:13;6.10;99.90
31525;DHT22;18134;52.298;8.888;2023-03-04T15:04:42;6.10;99.90
31525;DHT22;18134;52.298;8.888;2023-03-04T15:07:20;6.10;99.90
31525;DHT22;18134;52.298;8.888;2023-03-04T15:09:49;6.00;99.90
31525;DHT22;18134;52.298;8.888;2023-03-04T15:12:20;5.90;99.90
31525;DHT22;18134;52.298;8.888;2023-03-04T15:14:56;5.80;99.90
31525;DHT22;18134;52.298;8.888;2023-03-04T15:17:28;5.70;99.90
31525;DHT22;18134;52.298;8.888;2023-03-04T15:22:32;5.70;99.90
31525;DHT22;18134;52.298;8.888;2023-03-04T15:24:58;5.70;99.90
31525;DHT22;18134;52.298;8.888;2023-03-04T15:27:25;5.80;99.90
31525;DHT22;18134;52.298;8.888;2023-03-04T15:29:51;5.80;99.90
31525;DHT22;18134;52.298;8.888;2023-03-04T15:32:24;5.70;99.90
31525;DHT22;18134;52.298;8.888;2023-03-04T15:34:49;5.70;99.90
31525;DHT22;18134;52.298;8.888;2023-03-04T15:37:17;5.60;99.90
31525;DHT22;18134;52.298;8.888;2023-03-04T15:39:46;5.60;99.90
31525;DHT22;18134;52.298;8.888;2023-03-04T15:42:14;5.60;99.90
31525;DHT22;18134;52.298;8.888;2023-03-04T15:44:43;5.60;99.90
31525;DHT22;18134;52.298;8.888;2023-03-04T15:47:11;5.50;99.90
31525;DHT22;18134;52.298;8.888;2023-03-04T15:49:38;5.60;99.90
31525;DHT22;18134;52.298;8.888;2023-03-04T15:52:12;5.60;99.90
31525;DHT22;18134;52.298;8.888;2023-03-04T15:54:42;5.60;99.90
31525;DHT22;18134;52.298;8.888;2023-03-04T15:57:13;5.50;99.90
31525;DHT22;18134;52.298;8.888;2023-03-04T15:59:40;5.50;99.90
31525;DHT22;18134;52.298;8.888;2023-03-04T16:02:10;5.40;99.90
31525;DHT22;18134;52.298;8.888;2023-03-04T16:04:41;5.50;99.90
31525;DHT22;18134;52.298;8.888;2023-03-04T16:07:08;5.50;99.90
31525;DHT22;18134;52.298;8.888;2023-03-04T16:09:40;5.50;99.90
31525;DHT22;18134;52.298;8.888;2023-03-04T16:12:08;5.50;99.90
31525;DHT22;18134;52.298;8.888;2023-03-04T16:14:33;5.40;99.90
31525;DHT22;18134;52.298;8.888;2023-03-04T16:17:01;5.40;99.90
31525;DHT22;18134;52.298;8.888;2023-03-04T16:19:29;5.40;99.90
31525;DHT22;18134;52.298;8.888;2023-03-04T16:21:57;5.40;99.90
31525;DHT22;18134;52.298;8.888;2023-03-04T16:24:23;5.40;99.90
31525;DHT22;18134;52.298;8.888;2023-03-04T16:26:49;5.30;99.90
31525;DHT22;18134;52.298;8.888;2023-03-04T16:29:15;5.30;99.90
31525;DHT22;18134;52.298;8.888;2023-03-04T16:31:41;5.30;99.90
31525;DHT22;18134;52.298;8.888;2023-03-04T16:34:06;5.30;99.90
31525;DHT22;18134;52.298;8.888;2023-03-04T16:36:32;5.30;99.90
31525;DHT22;18134;52.298;8.888;2023-03-04T16:38:59;5.30;99.90
31525;DHT22;18134;52.298;8.888;2023-03-04T16:41:27;5.30;99.90
31525;DHT22;18134;52.298;8.888;2023-03-04T16:43:57;5.30;99.90
31525;DHT22;18134;52.298;8.888;2023-03-04T16:46:25;5.30;99.90
31525;DHT22;18134;52.298;8.888;2023-03-04T16:48:53;5.20;99.90
31525;DHT22;18134;52.298;8.888;2023-03-04T16:51:20;5.20;99.90
31525;DHT22;18134;52.298;8.888;2023-03-04T16:53:48;5.20;99.90
31525;DHT22;18134;52.298;8.888;2023-03-04T16:56:16;5.20;99.90
31525;DHT22;18134;52.298;8.888;2023-03-04T16:58:45;5.10;99.90
31525;DHT22;18134;52.298;8.888;2023-03-04T17:01:15;5.10;99.90
31525;DHT22;18134;52.298;8.888;2023-03-04T17:03:41;5.10;99.90
31525;DHT22;18134;52.298;8.888;2023-03-04T17:06:10;5.10;99.90
31525;DHT22;18134;52.298;8.888;2023-03-04T17:08:35;5.10;99.90
31525;DHT22;18134;52.298;8.888;2023-03-04T17:11:04;5.10;99.90
31525;DHT22;18134;52.298;8.888;2023-03-04T17:13:30;5.10;99.90
31525;DHT22;18134;52.298;8.888;2023-03-04T17:15:59;5.10;99.90
31525;DHT22;18134;52.298;8.888;2023-03-04T17:18:28;5.10;99.90
31525;DHT22;18134;52.298;8.888;2023-03-04T17:20:53;5.10;99.90
31525;DHT22;18134;52.298;8.888;2023-03-04T17:23:30;5.00;99.90
31525;DHT22;18134;52.298;8.888;2023-03-04T17:25:56;5.00;99.90
31525;DHT22;18134;52.298;8.888;2023-03-04T17:28:25;5.00;99.90
31525;DHT22;18134;52.298;8.888;2023-03-04T17:30:53;5.00;99.90
31525;DHT22;18134;52.298;8.888;2023-03-04T17:33:19;4.90;99.90
31525;DHT22;18134;52.298;8.888;2023-03-04T17:35:44;4.90;99.90
31525;DHT22;18134;52.298;8.888;2023-03-04T17:38:11;4.90;99.90
31525;DHT22;18134;52.298;8.888;2023-03-04T17:40:36;4.90;99.90
31525;DHT22;18134;52.298;8.888;2023-03-04T17:43:04;4.80;99.90
31525;DHT22;18134;52.298;8.888;2023-03-04T17:45:41;4.80;99.90
31525;DHT22;18134;52.298;8.888;2023-03-04T17:48:08;4.80;99.90
31525;DHT22;18134;52.298;8.888;2023-03-04T17:50:50;4.80;99.90
31525;DHT22;18134;52.298;8.888;2023-03-04T17:53:16;4.80;99.90
31525;DHT22;18134;52.298;8.888;2023-03-04T17:55:51;4.80;99.90